Time;durP1;ratioP1;P1;durP2;ratioP2;P2;SDS_P1;SDS_P2;PMS_P1;PMS_P2;Temp;Humidity;BMP_temperature;BMP_pressure;BME280_temperature;BME280_humidity;BME280_pressure;Samples;Min_cycle;Max_cycle;Signal;HPM_P1;HPM_P2
2022/12/04 00:01:58;;;;;;;80.32;30.63;;;;;;;;;;5114415;28;20031;-68
2022/12/04 00:04:24;;;;;;;85.30;30.70;;;;;;;;;;5114203;28;20030;-68
2022/12/04 00:06:50;;;;;;;79.25;31.02;;;;;;;;;;5113369;28;20027;-69
2022/12/04 00:09:15;;;;;;;63.90;24.55;;;;;;;;;;5114084;28;20378;-68
2022/12/04 00:11:40;;;;;;;75.57;28.15;;;;;;;;;;5114446;28;20055;-68
2022/12/04 00:14:06;;;;;;;80.40;30.25;;;;;;;;;;5114271;28;20027;-68
2022/12/04 00:16:32;;;;;;;84.80;33.33;;;;;;;;;;5114099;28;20477;-68
2022/12/04 00:18:57;;;;;;;86.80;31.77;;;;;;;;;;5114042;28;20030;-68
2022/12/04 00:21:24;;;;;;;64.43;25.88;;;;;;;;;;5113881;28;20493;-68
2022/12/04 00:23:50;;;;;;;79.95;30.15;;;;;;;;;;5114006;28;20028;-68
2022/12/04 00:26:18;;;;;;;82.10;30.15;;;;;;;;;;5113895;28;20096;-68
2022/12/04 00:28:43;;;;;;;84.47;32.58;;;;;;;;;;5114027;28;20085;-68
2022/12/04 00:31:16;;;;;;;92.00;31.48;;;;;;;;;;5112600;28;20024;-68
2022/12/04 00:33:42;;;;;;;88.30;31.50;;;;;;;;;;5114125;28;20028;-69
2022/12/04 00:36:11;;;;;;;84.50;30.63;;;;;;;;;;5113281;28;20055;-69
2022/12/04 00:38:37;;;;;;;82.18;30.02;;;;;;;;;;5112357;28;20035;-69
2022/12/04 00:41:03;;;;;;;80.78;32.20;;;;;;;;;;5113891;28;20167;-69
2022/12/04 00:43:30;;;;;;;81.82;28.58;;;;;;;;;;5113636;28;20024;-69
2022/12/04 00:45:55;;;;;;;73.18;30.23;;;;;;;;;;5113383;28;20031;-69
2022/12/04 00:48:22;;;;;;;86.65;30.85;;;;;;;;;;5113778;28;20114;-69
2022/12/04 00:50:47;;;;;;;91.22;34.58;;;;;;;;;;5113360;28;20539;-69
2022/12/04 00:53:13;;;;;;;57.67;24.42;;;;;;;;;;5113505;28;20047;-69
2022/12/04 00:55:43;;;;;;;75.25;28.00;;;;;;;;;;5113351;28;20058;-69
2022/12/04 00:58:09;;;;;;;76.35;29.52;;;;;;;;;;5113466;28;20020;-69
2022/12/04 01:00:39;;;;;;;86.45;33.88;;;;;;;;;;5113519;28;20388;-69
2022/12/04 01:03:06;;;;;;;83.15;30.75;;;;;;;;;;5113329;28;20579;-69
2022/12/04 01:05:32;;;;;;;73.90;28.60;;;;;;;;;;5113179;28;20095;-69
2022/12/04 01:07:57;;;;;;;63.90;26.52;;;;;;;;;;5113296;28;20107;-69
2022/12/04 01:10:23;;;;;;;85.68;31.90;;;;;;;;;;5113281;28;20023;-69
2022/12/04 01:12:49;;;;;;;84.70;29.30;;;;;;;;;;5113094;28;20023;-69
2022/12/04 01:15:16;;;;;;;86.95;33.85;;;;;;;;;;5113074;28;20100;-69
2022/12/04 01:17:41;;;;;;;62.35;22.42;;;;;;;;;;5112246;28;20390;-69
2022/12/04 01:20:07;;;;;;;80.43;27.77;;;;;;;;;;5113041;28;20060;-69
2022/12/04 01:22:32;;;;;;;77.55;30.75;;;;;;;;;;5111783;28;20031;-69
2022/12/04 01:24:58;;;;;;;80.57;28.30;;;;;;;;;;5113166;28;20467;-69
2022/12/04 01:27:23;;;;;;;82.90;30.70;;;;;;;;;;5113145;28;20042;-69
2022/12/04 01:29:49;;;;;;;70.20;28.13;;;;;;;;;;5112835;28;20508;-69
2022/12/04 01:32:15;;;;;;;78.50;29.85;;;;;;;;;;5112835;28;20547;-69
2022/12/04 01:34:40;;;;;;;73.80;29.33;;;;;;;;;;5112594;28;20191;-69
2022/12/04 01:37:05;;;;;;;95.72;35.05;;;;;;;;;;5113105;28;20028;-69
2022/12/04 01:39:31;;;;;;;74.88;30.38;;;;;;;;;;5113037;28;20080;-69
2022/12/04 01:41:56;;;;;;;87.50;32.13;;;;;;;;;;5112924;28;20032;-69
2022/12/04 01:44:25;;;;;;;88.45;31.85;;;;;;;;;;5113019;28;20031;-69
2022/12/04 01:46:55;;;;;;;86.07;30.50;;;;;;;;;;5112531;28;20103;-69
2022/12/04 01:49:36;;;;;;;91.47;34.17;;;;;;;;;;5112973;28;20027;-69
2022/12/04 01:52:05;;;;;;;82.13;31.55;;;;;;;;;;5112901;28;20045;-70
2022/12/04 01:54:36;;;;;;;85.60;29.27;;;;;;;;;;5112861;28;20028;-69
2022/12/04 01:57:13;;;;;;;71.38;26.02;;;;;;;;;;5113011;28;20024;-69
2022/12/04 01:59:49;;;;;;;83.70;31.13;;;;;;;;;;5113018;28;20084;-70
2022/12/04 02:02:18;;;;;;;95.45;32.55;;;;;;;;;;5112811;28;20386;-69
2022/12/04 02:04:44;;;;;;;102.32;32.88;;;;;;;;;;5112786;28;20522;-69
2022/12/04 02:07:10;;;;;;;106.55;36.03;;;;;;;;;;5112430;28;20032;-70
2022/12/04 02:09:38;;;;;;;81.03;30.15;;;;;;;;;;5112450;28;20097;-69
2022/12/04 02:12:09;;;;;;;80.85;32.83;;;;;;;;;;5112743;28;20040;-69
2022/12/04 02:14:35;;;;;;;75.30;28.17;;;;;;;;;;5112390;28;20024;-69
2022/12/04 02:17:12;;;;;;;77.70;28.77;;;;;;;;;;5112428;28;20084;-69
2022/12/04 02:19:44;;;;;;;91.53;32.33;;;;;;;;;;5112655;28;20475;-69
2022/12/04 02:22:26;;;;;;;79.72;31.25;;;;;;;;;;5112630;28;20489;-69
2022/12/04 02:25:29;;;;;;;85.63;30.33;;;;;;;;;;5112512;28;20049;-69
2022/12/04 02:28:02;;;;;;;72.90;28.80;;;;;;;;;;5069679;28;20383;-69
2022/12/04 02:30:30;;;;;;;87.20;30.80;;;;;;;;;;5071967;28;20042;-69
2022/12/04 02:33:02;;;;;;;97.93;36.33;;;;;;;;;;5073309;28;20123;-69
2022/12/04 02:35:41;;;;;;;89.13;30.58;;;;;;;;;;5073162;28;20056;-69
2022/12/04 02:38:17;;;;;;;75.53;29.35;;;;;;;;;;5073554;28;20534;-69
2022/12/04 02:41:11;;;;;;;92.13;33.38;;;;;;;;;;5073509;28;20047;-69
2022/12/04 02:43:46;;;;;;;95.03;34.05;;;;;;;;;;5069295;28;20040;-69
2022/12/04 02:46:35;;;;;;;86.10;30.38;;;;;;;;;;5072964;28;20104;-69
2022/12/04 02:49:06;;;;;;;83.80;33.05;;;;;;;;;;5073532;28;20499;-69
2022/12/04 02:51:35;;;;;;;88.63;34.05;;;;;;;;;;5073102;28;20044;-69
2022/12/04 02:54:09;;;;;;;91.38;34.60;;;;;;;;;;5073189;28;20028;-69
2022/12/04 02:56:39;;;;;;;96.55;35.08;;;;;;;;;;5073285;28;20028;-69
2022/12/04 02:59:08;;;;;;;;;;;;;;;;;;5073565;28;20128;-67
2022/12/04 03:01:39;;;;;;;93.85;35.03;;;;;;;;;;5073248;28;19917;-67
2022/12/04 03:04:14;;;;;;;101.03;34.90;;;;;;;;;;5077858;28;20055;-68
2022/12/04 03:06:42;;;;;;;92.53;32.90;;;;;;;;;;5115687;28;20059;-68
2022/12/04 03:09:12;;;;;;;85.78;30.58;;;;;;;;;;5115572;28;20047;-68
2022/12/04 03:11:40;;;;;;;84.40;31.00;;;;;;;;;;5114370;28;20031;-68
2022/12/04 03:14:21;;;;;;;87.15;30.58;;;;;;;;;;5115084;28;20565;-68
2022/12/04 03:16:49;;;;;;;92.93;32.47;;;;;;;;;;5115490;28;20024;-68
2022/12/04 03:19:23;;;;;;;82.40;30.30;;;;;;;;;;5115667;28;20111;-68
2022/12/04 03:21:58;;;;;;;88.82;32.75;;;;;;;;;;5115551;28;20035;-68
2022/12/04 03:24:37;;;;;;;90.03;33.83;;;;;;;;;;5115474;28;20126;-68
2022/12/04 03:27:13;;;;;;;93.57;31.33;;;;;;;;;;5115244;28;20028;-68
2022/12/04 03:29:47;;;;;;;91.93;31.38;;;;;;;;;;5114952;28;20574;-68
2022/12/04 03:32:39;;;;;;;92.47;33.00;;;;;;;;;;5115437;28;20059;-67
2022/12/04 03:35:07;;;;;;;101.53;33.55;;;;;;;;;;5051620;28;20148;-67
2022/12/04 03:37:52;;;;;;;108.65;38.47;;;;;;;;;;5052013;28;20515;-67
2022/12/04 03:40:48;;;;;;;101.78;35.95;;;;;;;;;;5035541;28;20040;-68
2022/12/04 03:43:38;;;;;;;99.63;34.78;;;;;;;;;;5052117;28;20033;-67
2022/12/04 03:46:09;;;;;;;102.05;34.72;;;;;;;;;;5052341;28;20087;-68
2022/12/04 03:49:04;;;;;;;107.28;37.90;;;;;;;;;;5052218;28;20025;-67
2022/12/04 03:51:57;;;;;;;100.65;32.28;;;;;;;;;;4973347;28;20489;-68
2022/12/04 03:54:49;;;;;;;96.20;33.00;;;;;;;;;;4973376;28;20117;-67
2022/12/04 03:57:23;;;;;;;71.95;22.80;;;;;;;;;;4973078;28;20043;-68
2022/12/04 03:59:57;;;;;;;99.90;33.60;;;;;;;;;;4973424;28;20043;-68
2022/12/04 04:02:26;;;;;;;99.97;31.05;;;;;;;;;;4973117;28;20041;-67
2022/12/04 04:04:55;;;;;;;120.32;37.28;;;;;;;;;;4973265;28;20053;-67
2022/12/04 04:07:37;;;;;;;108.60;33.85;;;;;;;;;;4973289;28;20069;-68
2022/12/04 04:10:10;;;;;;;117.18;36.83;;;;;;;;;;4973144;28;20130;-68
2022/12/04 04:12:39;;;;;;;120.93;37.72;;;;;;;;;;5035409;28;20094;-67
2022/12/04 04:26:37;;;;;;;123.10;37.45;;;;;;;;;;5051125;28;20067;-69
2022/12/04 04:29:02;;;;;;;111.82;39.00;;;;;;;;;;5081890;28;20514;-68
2022/12/04 04:31:58;;;;;;;126.35;39.08;;;;;;;;;;5093646;28;20032;-68
2022/12/04 04:34:29;;;;;;;133.35;40.55;;;;;;;;;;5093459;28;20028;-69
2022/12/04 04:37:13;;;;;;;112.18;35.28;;;;;;;;;;5093657;28;20044;-68
2022/12/04 04:39:44;;;;;;;117.47;38.25;;;;;;;;;;5093857;28;20060;-68
2022/12/04 04:42:18;;;;;;;134.18;40.33;;;;;;;;;;5093203;28;20028;-68
2022/12/04 04:45:07;;;;;;;140.25;41.95;;;;;;;;;;5093329;28;20038;-68
2022/12/04 04:47:44;;;;;;;116.35;37.92;;;;;;;;;;5093515;28;20063;-68
2022/12/04 04:50:12;;;;;;;135.73;40.55;;;;;;;;;;5093070;28;20024;-68
2022/12/04 04:52:42;;;;;;;128.50;37.92;;;;;;;;;;5092526;28;20028;-68
2022/12/04 04:55:08;;;;;;;139.35;41.58;;;;;;;;;;5092678;28;20058;-69
2022/12/04 04:57:35;;;;;;;133.85;41.97;;;;;;;;;;5093172;28;20051;-69
2022/12/04 05:00:04;;;;;;;125.60;39.20;;;;;;;;;;5092870;28;20067;-69
2022/12/04 05:02:31;;;;;;;141.80;41.15;;;;;;;;;;5093268;28;20110;-69
2022/12/04 05:04:56;;;;;;;131.48;39.13;;;;;;;;;;5092998;28;20063;-69
2022/12/04 05:07:22;;;;;;;119.95;38.63;;;;;;;;;;5093030;28;20077;-69
2022/12/04 05:09:47;;;;;;;127.75;39.70;;;;;;;;;;5092337;28;20016;-69
2022/12/04 05:12:13;;;;;;;125.43;35.97;;;;;;;;;;5093021;28;20020;-69
2022/12/04 05:14:38;;;;;;;122.82;40.55;;;;;;;;;;5092767;28;20047;-69
2022/12/04 05:17:05;;;;;;;120.53;38.53;;;;;;;;;;5092836;28;20028;-69
2022/12/04 05:19:52;;;;;;;111.88;35.17;;;;;;;;;;5092534;28;20028;-69
2022/12/04 05:22:34;;;;;;;130.20;38.20;;;;;;;;;;5092721;28;20094;-69
2022/12/04 05:25:00;;;;;;;106.22;34.80;;;;;;;;;;5095285;28;20026;-69
2022/12/04 05:27:28;;;;;;;118.47;36.42;;;;;;;;;;5113093;28;20534;-69
2022/12/04 05:29:55;;;;;;;136.93;39.67;;;;;;;;;;5112951;28;20078;-68
2022/12/04 05:32:23;;;;;;;121.03;36.05;;;;;;;;;;5112747;28;20084;-68
2022/12/04 05:34:49;;;;;;;131.40;38.22;;;;;;;;;;5112719;28;20534;-68
2022/12/04 05:37:15;;;;;;;107.45;35.28;;;;;;;;;;5112846;28;20027;-68
2022/12/04 05:39:41;;;;;;;105.38;33.33;;;;;;;;;;5112671;28;20023;-69
2022/12/04 05:42:06;;;;;;;138.10;40.58;;;;;;;;;;5112612;28;20089;-68
2022/12/04 05:44:32;;;;;;;109.55;35.17;;;;;;;;;;5112609;28;20049;-69
2022/12/04 05:46:57;;;;;;;135.82;36.60;;;;;;;;;;5112662;28;20055;-69
2022/12/04 05:49:23;;;;;;;106.05;34.00;;;;;;;;;;5112465;28;20107;-68
2022/12/04 05:51:49;;;;;;;124.07;34.45;;;;;;;;;;5112682;28;20027;-68
2022/12/04 05:54:16;;;;;;;120.53;35.83;;;;;;;;;;5112596;28;20344;-68
2022/12/04 05:56:41;;;;;;;150.10;41.95;;;;;;;;;;5112474;28;20027;-68
2022/12/04 05:59:07;;;;;;;119.93;38.63;;;;;;;;;;5112657;28;20027;-68
2022/12/04 06:01:32;;;;;;;91.18;31.25;;;;;;;;;;5112796;28;20171;-69
2022/12/04 06:03:58;;;;;;;132.88;42.83;;;;;;;;;;5113162;28;20031;-68
2022/12/04 06:06:24;;;;;;;144.98;42.72;;;;;;;;;;5116874;28;20027;-69
2022/12/04 06:08:52;;;;;;;137.98;40.70;;;;;;;;;;5116680;28;20023;-68
2022/12/04 06:11:21;;;;;;;121.57;36.40;;;;;;;;;;5116275;28;20031;-69
2022/12/04 06:13:46;;;;;;;121.88;36.17;;;;;;;;;;5115913;28;20023;-68
2022/12/04 06:16:16;;;;;;;154.00;41.83;;;;;;;;;;5116185;28;20466;-68
2022/12/04 06:18:42;;;;;;;114.03;34.58;;;;;;;;;;5116692;28;20063;-68
2022/12/04 06:21:09;;;;;;;131.65;38.78;;;;;;;;;;5116828;28;20039;-68
2022/12/04 06:23:34;;;;;;;126.40;38.45;;;;;;;;;;5116387;28;20479;-68
2022/12/04 06:26:04;;;;;;;122.35;37.58;;;;;;;;;;5116480;28;20081;-68
2022/12/04 06:28:30;;;;;;;100.25;32.03;;;;;;;;;;5116759;28;20099;-69
2022/12/04 06:31:01;;;;;;;96.78;32.90;;;;;;;;;;5116384;28;20435;-68
2022/12/04 06:33:26;;;;;;;;;;;;;;;;;;5116909;28;20074;-68
2022/12/04 06:36:01;;;;;;;98.15;31.98;;;;;;;;;;5116241;28;19950;-68
2022/12/04 06:38:27;;;;;;;111.03;35.50;;;;;;;;;;5116167;28;20482;-68
2022/12/04 06:40:52;;;;;;;109.00;34.75;;;;;;;;;;5116543;28;20040;-68
2022/12/04 06:43:18;;;;;;;117.22;37.38;;;;;;;;;;5116312;28;20027;-68
2022/12/04 06:45:43;;;;;;;113.30;36.13;;;;;;;;;;5116301;28;20023;-69
2022/12/04 06:48:09;;;;;;;99.80;33.00;;;;;;;;;;5116223;28;20107;-69
2022/12/04 06:50:34;;;;;;;113.07;38.97;;;;;;;;;;5115730;28;20039;-69
2022/12/04 06:53:00;;;;;;;118.72;39.30;;;;;;;;;;5115155;28;20091;-69
2022/12/04 06:55:25;;;;;;;102.38;33.75;;;;;;;;;;5115943;28;20019;-68
2022/12/04 06:57:51;;;;;;;102.85;34.42;;;;;;;;;;5116074;28;20020;-68
2022/12/04 07:00:16;;;;;;;112.10;35.92;;;;;;;;;;5115920;28;20418;-68
2022/12/04 07:02:42;;;;;;;119.50;36.80;;;;;;;;;;5115806;28;20024;-68
2022/12/04 07:05:07;;;;;;;92.35;30.92;;;;;;;;;;5115918;28;20069;-68
2022/12/04 07:07:33;;;;;;;108.45;35.05;;;;;;;;;;5115375;28;20046;-68
2022/12/04 07:09:58;;;;;;;96.93;34.92;;;;;;;;;;5115279;28;20023;-69
2022/12/04 07:12:24;;;;;;;102.38;33.75;;;;;;;;;;5115762;28;20080;-69
2022/12/04 07:14:49;;;;;;;106.05;36.25;;;;;;;;;;5115374;28;20024;-70
2022/12/04 07:17:15;;;;;;;97.20;35.92;;;;;;;;;;5114329;28;20024;-67
2022/12/04 07:19:40;;;;;;;94.63;34.90;;;;;;;;;;5115745;27;20047;-69
2022/12/04 07:22:07;;;;;;;90.57;32.58;;;;;;;;;;5115261;28;20024;-67
2022/12/04 07:24:34;;;;;;;90.25;31.20;;;;;;;;;;5115572;28;20030;-67
2022/12/04 07:27:00;;;;;;;101.22;37.25;;;;;;;;;;5115225;28;20034;-68
2022/12/04 07:29:25;;;;;;;88.47;31.65;;;;;;;;;;5115408;28;20374;-68
2022/12/04 07:31:51;;;;;;;114.25;38.20;;;;;;;;;;5115475;28;20026;-67
2022/12/04 07:34:16;;;;;;;89.15;31.80;;;;;;;;;;5115355;28;20098;-68
2022/12/04 07:36:42;;;;;;;84.90;29.08;;;;;;;;;;5114823;28;20046;-69
2022/12/04 07:39:07;;;;;;;86.03;31.35;;;;;;;;;;5115241;28;20451;-68
2022/12/04 07:41:33;;;;;;;90.05;32.67;;;;;;;;;;5115210;27;20036;-68
2022/12/04 07:43:59;;;;;;;95.35;33.47;;;;;;;;;;5113835;28;20443;-69
2022/12/04 07:46:27;;;;;;;84.63;32.15;;;;;;;;;;5115069;28;20099;-68
2022/12/04 07:48:56;;;;;;;95.93;30.85;;;;;;;;;;5114900;28;20049;-68
2022/12/04 07:51:24;;;;;;;89.00;33.17;;;;;;;;;;5114736;28;20023;-68
2022/12/04 07:53:52;;;;;;;91.13;31.60;;;;;;;;;;5114629;28;20027;-68
2022/12/04 07:56:18;;;;;;;78.70;30.52;;;;;;;;;;5114891;28;20031;-68
2022/12/04 07:58:44;;;;;;;81.88;30.67;;;;;;;;;;5114697;28;20103;-68
2022/12/04 08:01:12;;;;;;;91.85;33.13;;;;;;;;;;5114814;28;20027;-68
2022/12/04 08:03:39;;;;;;;91.40;33.35;;;;;;;;;;5114378;28;20054;-68
2022/12/04 08:06:05;;;;;;;98.10;33.47;;;;;;;;;;5114803;28;20031;-68
2022/12/04 08:08:31;;;;;;;102.80;34.25;;;;;;;;;;5114477;28;20023;-68
2022/12/04 08:10:56;;;;;;;81.03;28.55;;;;;;;;;;5114551;28;20498;-68
2022/12/04 08:13:22;;;;;;;92.32;31.50;;;;;;;;;;5114490;28;20596;-68
2022/12/04 08:15:47;;;;;;;93.65;32.47;;;;;;;;;;5114521;28;20024;-68
2022/12/04 08:18:13;;;;;;;82.38;29.77;;;;;;;;;;5114357;28;20390;-68
2022/12/04 08:20:38;;;;;;;87.90;32.80;;;;;;;;;;5114507;28;20035;-68
2022/12/04 08:23:04;;;;;;;92.88;33.53;;;;;;;;;;5114270;27;20058;-68
2022/12/04 08:25:29;;;;;;;94.47;33.40;;;;;;;;;;5114211;28;20024;-68
2022/12/04 08:27:55;;;;;;;93.93;32.33;;;;;;;;;;5114171;28;20032;-68
2022/12/04 08:30:20;;;;;;;82.30;31.20;;;;;;;;;;5114206;28;20374;-69
2022/12/04 08:32:47;;;;;;;99.45;31.92;;;;;;;;;;5113989;27;20042;-68
2022/12/04 08:35:12;;;;;;;93.03;34.63;;;;;;;;;;5113707;28;20059;-68
2022/12/04 08:37:37;;;;;;;77.55;29.40;;;;;;;;;;5114114;28;20016;-69
2022/12/04 08:40:04;;;;;;;74.15;27.92;;;;;;;;;;5113923;28;20028;-69
2022/12/04 08:42:30;;;;;;;80.65;31.48;;;;;;;;;;5113985;28;20051;-68
2022/12/04 08:44:56;;;;;;;78.53;30.05;;;;;;;;;;5113660;28;20030;-69
2022/12/04 08:47:21;;;;;;;89.05;34.50;;;;;;;;;;5113610;28;20111;-69
2022/12/04 08:49:47;;;;;;;95.32;32.67;;;;;;;;;;5113651;28;20032;-69
2022/12/04 08:52:12;;;;;;;88.45;34.42;;;;;;;;;;5113283;28;20488;-68
2022/12/04 08:54:38;;;;;;;79.28;30.42;;;;;;;;;;5111837;28;20089;-69
2022/12/04 08:57:03;;;;;;;97.65;36.22;;;;;;;;;;5113489;28;20032;-69
2022/12/04 08:59:29;;;;;;;78.85;30.70;;;;;;;;;;5113430;28;20026;-69
2022/12/04 09:01:54;;;;;;;104.25;32.50;;;;;;;;;;5113272;28;20039;-69
2022/12/04 09:04:20;;;;;;;88.53;32.15;;;;;;;;;;5113387;28;20031;-69
2022/12/04 09:06:45;;;;;;;92.22;34.70;;;;;;;;;;5112847;28;20024;-69
2022/12/04 09:09:11;;;;;;;91.97;31.90;;;;;;;;;;5113142;28;20024;-69
2022/12/04 09:11:37;;;;;;;81.38;27.67;;;;;;;;;;5113123;28;20027;-68
2022/12/04 09:14:02;;;;;;;94.97;33.17;;;;;;;;;;5113147;28;20474;-69
2022/12/04 09:16:28;;;;;;;93.80;31.25;;;;;;;;;;5112827;28;20049;-69
2022/12/04 09:18:54;;;;;;;78.22;27.73;;;;;;;;;;5113022;28;20026;-69
2022/12/04 09:21:21;;;;;;;86.97;32.92;;;;;;;;;;5113070;28;20027;-69
2022/12/04 09:23:47;;;;;;;98.63;34.03;;;;;;;;;;5112796;28;20093;-69
2022/12/04 09:26:39;;;;;;;84.18;31.20;;;;;;;;;;5112535;28;20031;-69
2022/12/04 09:29:05;;;;;;;97.32;36.97;;;;;;;;;;5110017;28;20040;-68
2022/12/04 09:31:31;;;;;;;103.38;35.05;;;;;;;;;;5112491;28;20377;-68
2022/12/04 09:33:58;;;;;;;91.15;34.58;;;;;;;;;;5112720;28;20027;-68
2022/12/04 09:36:23;;;;;;;82.80;27.63;;;;;;;;;;5112591;28;20044;-68
2022/12/04 09:38:50;;;;;;;92.82;32.28;;;;;;;;;;5111051;28;20542;-68
2022/12/04 09:41:35;;;;;;;90.75;33.13;;;;;;;;;;5112787;28;20390;-68
2022/12/04 09:44:27;;;;;;;103.72;34.33;;;;;;;;;;5112515;28;20039;-68
2022/12/04 09:47:03;;;;;;;100.07;33.17;;;;;;;;;;5105180;28;20402;-68
2022/12/04 09:49:50;;;;;;;87.10;31.67;;;;;;;;;;5112841;28;20439;-68
2022/12/04 09:52:33;;;;;;;89.30;29.85;;;;;;;;;;5112946;28;20055;-68
2022/12/04 09:55:02;;;;;;;105.57;35.63;;;;;;;;;;5112826;28;20020;-68
2022/12/04 09:57:39;;;;;;;85.65;30.63;;;;;;;;;;5112827;28;20027;-68
2022/12/04 10:00:05;;;;;;;98.55;33.65;;;;;;;;;;5112332;28;20471;-69
2022/12/04 10:02:38;;;;;;;90.10;31.15;;;;;;;;;;5112904;28;20371;-68
2022/12/04 10:05:05;;;;;;;85.90;30.23;;;;;;;;;;5112531;28;20080;-69
2022/12/04 10:07:53;;;;;;;100.63;35.97;;;;;;;;;;5112610;28;20031;-68
2022/12/04 10:10:30;;;;;;;71.60;27.90;;;;;;;;;;5112619;28;20027;-68
2022/12/04 10:13:57;;;;;;;94.63;32.55;;;;;;;;;;5112821;28;20107;-68
2022/12/04 10:16:31;;;;;;;110.82;34.83;;;;;;;;;;4990283;28;20038;-69
2022/12/04 10:19:20;;;;;;;103.43;33.13;;;;;;;;;;4990825;28;20440;-68
2022/12/04 10:21:53;;;;;;;116.18;33.97;;;;;;;;;;4990278;28;20489;-69
2022/12/04 10:24:41;;;;;;;98.25;32.40;;;;;;;;;;4990783;28;20066;-69
2022/12/04 10:27:18;;;;;;;105.65;34.58;;;;;;;;;;4990705;28;20046;-69
2022/12/04 10:29:48;;;;;;;106.55;35.33;;;;;;;;;;4990170;28;20034;-68
2022/12/04 10:32:21;;;;;;;99.77;31.47;;;;;;;;;;4989972;28;20501;-69
2022/12/04 10:34:49;;;;;;;94.72;33.45;;;;;;;;;;4989932;28;20782;-69
2022/12/04 10:37:15;;;;;;;111.40;35.72;;;;;;;;;;4990532;28;20066;-69
2022/12/04 10:40:19;;;;;;;101.45;34.08;;;;;;;;;;4990357;28;20062;-69
2022/12/04 10:43:12;;;;;;;97.20;32.80;;;;;;;;;;4988790;28;20449;-69
2022/12/04 10:45:37;;;;;;;88.30;28.50;;;;;;;;;;4991473;28;20085;-70
2022/12/04 10:48:06;;;;;;;94.25;29.98;;;;;;;;;;5029599;28;20096;-69
2022/12/04 10:50:32;;;;;;;96.35;32.70;;;;;;;;;;5030441;28;20043;-69
2022/12/04 10:52:58;;;;;;;93.80;29.70;;;;;;;;;;5060619;28;20114;-69
2022/12/04 10:55:30;;;;;;;87.32;30.42;;;;;;;;;;5115995;28;20027;-69
2022/12/04 10:57:55;;;;;;;92.10;30.98;;;;;;;;;;5115499;28;20059;-69
2022/12/04 11:00:24;;;;;;;104.05;33.80;;;;;;;;;;5115981;28;20020;-69
2022/12/04 11:02:51;;;;;;;96.30;32.88;;;;;;;;;;5116194;28;20091;-69
2022/12/04 11:05:26;;;;;;;97.20;31.90;;;;;;;;;;5115696;28;20039;-69
2022/12/04 11:07:53;;;;;;;88.78;31.17;;;;;;;;;;5115719;28;20036;-69
2022/12/04 11:10:24;;;;;;;107.18;35.33;;;;;;;;;;5115966;28;20071;-68
2022/12/04 11:12:54;;;;;;;85.53;30.90;;;;;;;;;;5115480;28;20106;-68
2022/12/04 11:15:20;;;;;;;90.57;31.35;;;;;;;;;;5115765;28;20026;-68
2022/12/04 11:17:45;;;;;;;86.68;27.95;;;;;;;;;;5115526;28;20028;-68
2022/12/04 11:20:18;;;;;;;81.40;30.25;;;;;;;;;;5115540;28;20406;-68
2022/12/04 11:22:57;;;;;;;88.88;29.58;;;;;;;;;;5115339;28;20500;-68
2022/12/04 11:25:27;;;;;;;90.77;29.50;;;;;;;;;;5114657;28;20065;-68
2022/12/04 11:27:59;;;;;;;97.83;33.23;;;;;;;;;;5114780;28;20292;-68
2022/12/04 11:30:46;;;;;;;97.65;34.90;;;;;;;;;;5114780;28;20086;-68
2022/12/04 11:33:22;;;;;;;118.55;35.78;;;;;;;;;;5115355;28;20059;-68
2022/12/04 11:35:54;;;;;;;109.25;34.25;;;;;;;;;;5114744;28;20393;-68
2022/12/04 11:38:24;;;;;;;102.82;33.17;;;;;;;;;;5115214;28;20069;-68
2022/12/04 11:40:51;;;;;;;;;;;;;;;;;;5115468;28;20012;-68
2022/12/04 11:43:18;;;;;;;100.22;32.67;;;;;;;;;;5114584;28;19915;-69
2022/12/04 11:45:54;;;;;;;104.63;33.28;;;;;;;;;;5115154;28;20106;-69
2022/12/04 11:48:21;;;;;;;117.35;39.05;;;;;;;;;;5114986;28;20466;-68
2022/12/04 11:50:50;;;;;;;98.20;33.00;;;;;;;;;;5114766;28;20035;-69
2022/12/04 11:53:37;;;;;;;103.10;34.08;;;;;;;;;;5114694;28;20024;-67
2022/12/04 11:56:20;;;;;;;106.30;34.85;;;;;;;;;;5114551;28;20054;-69
2022/12/04 11:59:16;;;;;;;109.65;36.85;;;;;;;;;;5114417;28;20172;-69
2022/12/04 12:01:49;;;;;;;96.47;32.05;;;;;;;;;;5114346;28;20028;-69
2022/12/04 12:04:51;;;;;;;111.38;35.75;;;;;;;;;;5114161;28;20019;-67
2022/12/04 12:07:42;;;;;;;86.30;30.17;;;;;;;;;;5114512;28;20031;-69
2022/12/04 12:10:29;;;;;;;;;;;;;;;;;;5114290;28;20020;-67
2022/12/04 12:12:57;;;;;;;81.97;28.50;;;;;;;;;;5114029;28;19919;-68
2022/12/04 12:15:35;;;;;;;84.55;28.73;;;;;;;;;;5113071;28;20019;-67
2022/12/04 12:18:12;;;;;;;89.55;29.50;;;;;;;;;;5114421;28;20023;-67
2022/12/04 12:21:00;;;;;;;82.20;27.98;;;;;;;;;;5114583;28;20351;-67
2022/12/04 12:23:31;;;;;;;82.53;31.20;;;;;;;;;;5113943;28;20628;-68
2022/12/04 12:26:12;;;;;;;87.50;31.20;;;;;;;;;;5113314;28;20054;-68
2022/12/04 12:28:50;;;;;;;91.20;28.40;;;;;;;;;;5114048;28;20027;-68
2022/12/04 12:31:33;;;;;;;99.05;31.98;;;;;;;;;;5114074;28;20024;-68
2022/12/04 12:34:05;;;;;;;95.50;33.03;;;;;;;;;;5113897;28;20035;-68
2022/12/04 12:36:37;;;;;;;93.38;32.40;;;;;;;;;;5113589;28;20043;-68
2022/12/04 12:39:11;;;;;;;97.85;32.40;;;;;;;;;;5113884;28;20471;-68
2022/12/04 12:41:44;;;;;;;92.32;31.13;;;;;;;;;;5113542;28;20027;-68
2022/12/04 12:44:18;;;;;;;111.25;36.38;;;;;;;;;;5113911;28;20485;-68
2022/12/04 12:46:50;;;;;;;107.63;36.30;;;;;;;;;;5113723;28;20020;-68
2022/12/04 12:49:25;;;;;;;92.57;33.22;;;;;;;;;;5113797;28;20030;-69
2022/12/04 12:52:04;;;;;;;103.65;32.63;;;;;;;;;;5113651;28;20031;-68
2022/12/04 12:54:38;;;;;;;107.95;33.53;;;;;;;;;;5113407;28;20024;-68
2022/12/04 12:57:32;;;;;;;102.28;31.45;;;;;;;;;;5113220;28;20054;-68
2022/12/04 13:00:04;;;;;;;111.95;31.70;;;;;;;;;;5113466;28;20078;-69
2022/12/04 13:02:37;;;;;;;113.50;33.03;;;;;;;;;;5113794;28;20398;-69
2022/12/04 13:05:10;;;;;;;110.93;34.03;;;;;;;;;;5111930;28;20493;-69
2022/12/04 13:07:51;;;;;;;102.55;31.98;;;;;;;;;;5113534;28;20156;-68
2022/12/04 13:10:19;;;;;;;118.88;31.98;;;;;;;;;;5113286;28;20053;-69
2022/12/04 13:12:55;;;;;;;113.30;33.70;;;;;;;;;;5113253;28;20024;-69
2022/12/04 13:15:27;;;;;;;107.65;32.53;;;;;;;;;;5112644;28;20464;-69
2022/12/04 13:17:55;;;;;;;101.25;31.23;;;;;;;;;;5113493;28;20038;-69
2022/12/04 13:20:27;;;;;;;114.95;34.70;;;;;;;;;;5113443;28;20467;-69
2022/12/04 13:23:17;;;;;;;114.78;33.60;;;;;;;;;;5113242;28;20114;-69
2022/12/04 13:25:56;;;;;;;115.03;35.25;;;;;;;;;;5113113;28;20015;-69
2022/12/04 13:28:55;;;;;;;116.80;34.20;;;;;;;;;;5113436;28;20028;-69
2022/12/04 13:31:36;;;;;;;129.68;36.28;;;;;;;;;;5113216;28;20067;-68
2022/12/04 13:34:11;;;;;;;122.05;36.00;;;;;;;;;;5113235;28;20023;-68
2022/12/04 13:36:51;;;;;;;123.78;36.75;;;;;;;;;;5113106;28;20047;-68
2022/12/04 13:40:07;;;;;;;125.25;36.63;;;;;;;;;;5112935;28;20034;-68
2022/12/04 13:42:33;;;;;;;124.72;38.28;;;;;;;;;;5112904;28;20046;-68
2022/12/04 13:45:11;;;;;;;116.38;36.38;;;;;;;;;;5112776;28;20470;-68
2022/12/04 13:47:37;;;;;;;118.78;33.17;;;;;;;;;;5112599;28;20077;-69
2022/12/04 13:50:17;;;;;;;106.82;30.90;;;;;;;;;;5112718;28;20028;-68
2022/12/04 13:52:42;;;;;;;125.00;36.58;;;;;;;;;;5112920;28;20059;-68
2022/12/04 13:55:29;;;;;;;116.45;31.83;;;;;;;;;;5112729;28;20078;-68
2022/12/04 13:58:00;;;;;;;130.07;35.83;;;;;;;;;;5112919;28;20027;-68
2022/12/04 14:00:33;;;;;;;117.18;33.40;;;;;;;;;;5112749;28;20031;-68
2022/12/04 14:03:19;;;;;;;100.32;30.85;;;;;;;;;;5113020;28;20085;-68
2022/12/04 14:05:44;;;;;;;108.57;33.35;;;;;;;;;;5112215;28;20478;-68
2022/12/04 14:08:19;;;;;;;108.60;34.50;;;;;;;;;;5112404;28;20070;-68
2022/12/04 14:11:04;;;;;;;104.30;32.70;;;;;;;;;;5112750;28;20520;-68
2022/12/04 14:13:48;;;;;;;100.68;30.67;;;;;;;;;;5112701;28;20179;-69
2022/12/04 14:16:37;;;;;;;111.60;31.92;;;;;;;;;;5112521;28;20034;-68
2022/12/04 14:19:04;;;;;;;104.53;27.73;;;;;;;;;;5112803;28;20031;-69
2022/12/04 14:21:41;;;;;;;110.18;33.13;;;;;;;;;;5112536;28;20020;-68
2022/12/04 14:24:24;;;;;;;104.85;29.35;;;;;;;;;;5112638;28;20031;-68
2022/12/04 14:26:50;;;;;;;102.70;31.85;;;;;;;;;;5115692;28;20020;-68
2022/12/04 14:29:29;;;;;;;114.95;36.63;;;;;;;;;;5116647;28;20042;-68
2022/12/04 14:31:59;;;;;;;130.68;33.97;;;;;;;;;;5116149;28;20038;-68
2022/12/04 14:34:28;;;;;;;111.30;32.85;;;;;;;;;;5116061;28;20070;-68
2022/12/04 14:36:55;;;;;;;113.50;30.70;;;;;;;;;;5116062;28;20048;-69
2022/12/04 14:39:33;;;;;;;110.28;32.58;;;;;;;;;;5116250;28;20097;-68
2022/12/04 14:42:16;;;;;;;133.95;35.03;;;;;;;;;;5116259;28;20027;-68
2022/12/04 14:44:44;;;;;;;135.10;35.03;;;;;;;;;;5131862;27;20019;-68
2022/12/04 14:47:45;;;;;;;132.07;32.50;;;;;;;;;;5116276;28;20111;-69
2022/12/04 14:50:39;;;;;;;;;;;;;;;;;;5116225;28;20051;-68
2022/12/04 14:53:10;;;;;;;102.32;26.95;;;;;;;;;;5073085;28;19912;-69